Eurogracht — PDZR — position and weather

sailwx.info

Track history (hours):
 
Tides and Currents Weather Stations Pressure Air Temp Water Temp Dewpoint Dewpoint Depression Visibility Wind Speed Wind Dir Waves Ship Positions

Eurogracht

Last reported at 2017-Dec-02 20:01 UTC. Time now 2017-Dec-13 18:51 UTC.
Position N 55°27' E 015°32'.
Warning: this ship's position is 10 days out of date.

Length 136 m; beam 19 m; draft 9 m.

Type: Cargo ship. MMSI: 246321000.

Date/timePositionNaut miles runAvg speedWind from/ knotsBaromVisibWave heightAir tempDewpointWater temp
2017-Dec-02 20:01N 55°27' E 015°32'212.7
2017-Dec-02 19:50N 55°27' E 015°28'412.5
2017-Dec-02 19:30N 55°26' E 015°21'612.6
2017-Dec-02 19:01N 55°26' E 015°10'612.8
2017-Dec-02 18:30N 55°25' E 014°58'612.8
2017-Dec-02 18:01N 55°25' E 014°47'611.7
2017-Dec-02 17:31N 55°22' E 014°38'612.3
2017-Dec-02 17:01N 55°17' E 014°32'612.4
2017-Dec-02 16:31N 55°12' E 014°25'612.8
2017-Dec-02 16:01N 55°08' E 014°17'813.7
2017-Dec-02 15:25N 55°01' E 014°08'613.6
2017-Dec-02 15:00N 54°59' E 013°59'4614.0
2017-Dec-02 11:43N 54°45' E 012°43'313.6
2017-Dec-02 11:30N 54°43' E 012°39'713.7
2017-Dec-02 11:00N 54°40' E 012°29'713.5
2017-Dec-02 10:30N 54°36' E 012°19'713.3
2017-Dec-02 10:00N 54°29' E 012°15'613.3
2017-Dec-02 09:30N 54°24' E 012°09'713.3
2017-Dec-02 08:57N 54°24' E 011°56'613.1
2017-Dec-02 08:30N 54°25' E 011°46'713.2
2017-Dec-02 08:00N 54°28' E 011°36'713.3
2017-Dec-02 07:31N 54°31' E 011°25'612.9
2017-Dec-02 07:01N 54°33' E 011°15'612.2
2017-Dec-02 06:31N 54°35' E 011°05'612.8
2017-Dec-02 06:01N 54°35' E 010°54'713.8
2017-Dec-02 05:31N 54°34' E 010°43'713.9
2017-Dec-02 05:00N 54°32' E 010°31'22 3.3
2017-Dec-01 22:18N 54°21' E 009°59'2 8.0
2017-Dec-01 21:59N 54°21' E 009°55'4 8.6
2017-Dec-01 21:30N 54°22' E 009°48'4 8.4
2017-Dec-01 21:00N 54°19' E 009°43'4 7.6
2017-Dec-01 20:30N 54°16' E 009°38'4 7.7
2017-Dec-01 20:00N 54°13' E 009°35'4 8.4
2017-Dec-01 19:30N 54°11' E 009°29'2 3.3
2017-Dec-01 19:00N 54°10' E 009°26'1 1.7
2017-Dec-01 18:30N 54°10' E 009°25'4 7.0
2017-Dec-01 18:00N 54°08' E 009°20'4 8.3
2017-Dec-01 17:30N 54°04' E 009°19'4 8.2
2017-Dec-01 17:00N 53°60' E 009°17'4 8.3
2017-Dec-01 16:30N 53°56' E 009°13'4 7.1
2017-Dec-01 16:00N 53°54' E 009°09'0 0.5
2017-Dec-01 15:30N 53°54' E 009°09'1 2.5
2017-Dec-01 15:01N 53°53' E 009°07'1 2.4
2017-Dec-01 14:30N 53°53' E 009°05'3 5.2
2017-Dec-01 14:00N 53°51' E 009°01'510.2
2017-Dec-01 13:30N 53°50' E 008°53'5 9.9
2017-Dec-01 13:00N 53°52' E 008°45'510.5
2017-Dec-01 12:30N 53°56' E 008°40'510.4
2017-Dec-01 12:00N 53°58' E 008°32'611.1
2017-Dec-01 11:30N 53°59' E 008°22'611.5
2017-Dec-01 11:00N 53°59' E 008°12'612.4
2017-Dec-01 10:30N 53°59' E 008°02'612.8
2017-Dec-01 10:00N 53°57' E 007°51'8213.8
2017-Dec-01 04:01N 53°35' E 005°37'014.5
2017-Dec-01 04:00N 53°35' E 005°37'714.8
2017-Dec-01 03:30N 53°33' E 005°25'815.3
2017-Dec-01 03:00N 53°31' E 005°13'815.1
2017-Dec-01 02:30N 53°28' E 005°01'714.9
2017-Dec-01 02:00N 53°26' E 004°49'713.7
2017-Dec-01 01:30N 53°21' E 004°42'714.6
2017-Dec-01 01:00N 53°14' E 004°36'714.2
2017-Dec-01 00:29N 53°08' E 004°29'713.7
2017-Dec-01 00:00N 53°02' E 004°24'613.0
2017-Nov-30 23:30N 52°56' E 004°20'612.6
2017-Nov-30 23:00N 52°51' E 004°15'612.2
2017-Nov-30 22:31N 52°46' E 004°09'612.1
2017-Nov-30 22:00N 52°41' E 004°02'611.9
2017-Nov-30 21:30N 52°37' E 003°56'611.8
2017-Nov-30 21:01N 52°33' E 003°49'611.5
2017-Nov-30 20:27N 52°28' E 003°42'511.0
2017-Nov-30 19:58N 52°24' E 003°35'6810.5
2017-Nov-30 13:28N 51°34' E 002°21'612.3
2017-Nov-30 13:00N 51°30' E 002°15'712.4
2017-Nov-30 12:28N 51°24' E 002°10'612.4
2017-Nov-30 12:00N 51°18' E 002°07'612.7
2017-Nov-30 11:30N 51°13' E 002°02'713.6
2017-Nov-30 10:59N 51°09' E 001°53'713.8
2017-Nov-30 10:30N 51°04' E 001°45'611.2
2017-Nov-30 10:00N 50°59' E 001°44'5 9.0
2017-Nov-30 09:31N 50°58' E 001°51'1 1.0
2017-Nov-30 09:00N 50°58' E 001°52'0 0.0
2017-Nov-30 08:29N 50°58' E 001°52'0 0.0
2017-Nov-30 07:53N 50°58' E 001°52'0 0.0
2017-Nov-30 07:29N 50°58' E 001°52'0 0.0
2017-Nov-30 06:59N 50°58' E 001°52'0 0.0
2017-Nov-30 06:20N 50°58' E 001°52'0 0.0
2017-Nov-30 05:56N 50°58' E 001°52'0 0.0
2017-Nov-30 05:29N 50°58' E 001°52'0 0.0
2017-Nov-30 04:56N 50°58' E 001°52'0 0.0
2017-Nov-30 04:29N 50°58' E 001°52'0 0.0
2017-Nov-30 03:59N 50°58' E 001°52'0 0.0
2017-Nov-30 03:29N 50°58' E 001°52'0 0.0
2017-Nov-30 02:53N 50°58' E 001°52'0 0.0
2017-Nov-30 02:23N 50°58' E 001°52'0 0.0
2017-Nov-30 01:59N 50°58' E 001°52'0 0.0
2017-Nov-30 01:23N 50°58' E 001°52'0 0.0
2017-Nov-30 00:59N 50°58' E 001°52'0 0.0
2017-Nov-30 00:26N 50°58' E 001°52'0 0.0
2017-Nov-29 23:59N 50°58' E 001°52'0 0.0
2017-Nov-29 23:29N 50°58' E 001°52'0 0.0
2017-Nov-29 22:59N 50°58' E 001°52'0 0.0
2017-Nov-29 22:02N 50°58' E 001°52'0 0.1
2017-Nov-29 21:56N 50°58' E 001°52'0 0.0
2017-Nov-29 21:29N 50°58' E 001°52'0 0.0
2017-Nov-29 20:59N 50°58' E 001°52'0 0.0
2017-Nov-29 20:29N 50°58' E 001°52'0 0.0
2017-Nov-29 19:50N 50°58' E 001°52'0 0.0
2017-Nov-29 19:29N 50°58' E 001°52'0 0.0
2017-Nov-29 18:59N 50°58' E 001°52'0 0.0
2017-Nov-29 18:29N 50°58' E 001°52'0 0.0
2017-Nov-29 17:59N 50°58' E 001°52'0 0.0
2017-Nov-29 17:26N 50°58' E 001°52'0 0.0
2017-Nov-29 16:59N 50°58' E 001°52'0 0.0
2017-Nov-29 16:29N 50°58' E 001°52'0 0.0
2017-Nov-29 15:47N 50°58' E 001°52'0 0.0
2017-Nov-29 15:23N 50°58' E 001°52'0 0.0
2017-Nov-29 14:50N 50°58' E 001°52'0 0.0
2017-Nov-29 14:29N 50°58' E 001°52'0 0.0
2017-Nov-29 13:59N 50°58' E 001°52'0 0.0
2017-Nov-29 13:29N 50°58' E 001°52'0 0.0
2017-Nov-29 12:58N 50°58' E 001°52'0 0.0
2017-Nov-29 12:28N 50°58' E 001°52'0 0.0
2017-Nov-29 11:43N 50°58' E 001°52'0 0.0
2017-Nov-29 11:25N 50°58' E 001°52'0 0.0
2017-Nov-29 10:46N 50°58' E 001°52'0 0.0
2017-Nov-29 09:25N 50°58' E 001°52'0 0.0
2017-Nov-29 08:58N 50°58' E 001°52'0 0.0
2017-Nov-29 08:28N 50°58' E 001°52'0 0.0
2017-Nov-29 07:58N 50°58' E 001°52'0 0.0
2017-Nov-29 07:28N 50°58' E 001°52'0 0.0
2017-Nov-29 06:58N 50°58' E 001°52'0 0.0
2017-Nov-29 06:25N 50°58' E 001°52'0 0.0
2017-Nov-29 05:40N 50°58' E 001°52'0 0.0
2017-Nov-29 05:28N 50°58' E 001°52'0 0.0
2017-Nov-29 04:55N 50°58' E 001°52'0 0.0
2017-Nov-29 04:19N 50°58' E 001°52'0 0.0
2017-Nov-29 03:55N 50°58' E 001°52'0 0.0
2017-Nov-29 03:28N 50°58' E 001°52'0 0.0
2017-Nov-29 02:58N 50°58' E 001°52'0 0.0
2017-Nov-29 02:28N 50°58' E 001°52'0 0.0
2017-Nov-29 01:58N 50°58' E 001°52'0 0.0
2017-Nov-29 01:22N 50°58' E 001°52'0 0.0
2017-Nov-29 00:58N 50°58' E 001°52'0 0.0
2017-Nov-29 00:28N 50°58' E 001°52'0 0.0
2017-Nov-28 23:58N 50°58' E 001°52'0 0.0
2017-Nov-28 23:22N 50°58' E 001°52'0 0.0
2017-Nov-28 22:58N 50°58' E 001°52'0 0.0
2017-Nov-28 21:49N 50°58' E 001°52'0 0.0
2017-Nov-28 17:22N 50°58' E 001°52'0 0.0
2017-Nov-28 16:55N 50°58' E 001°52'0 0.0
2017-Nov-28 15:49N 50°58' E 001°52'0 0.0
2017-Nov-28 14:04N 50°58' E 001°52'0 0.0
2017-Nov-28 13:58N 50°58' E 001°52'0 0.0
2017-Nov-28 13:22N 50°58' E 001°52'0 0.0
2017-Nov-28 11:46N 50°58' E 001°52'0 0.0
2017-Nov-28 11:22N 50°58' E 001°52'0 0.0
2017-Nov-28 10:58N 50°58' E 001°52'0 0.0
2017-Nov-28 10:22N 50°58' E 001°52'0 0.0
2017-Nov-28 09:52N 50°58' E 001°52'0 0.0
2017-Nov-28 09:28N 50°58' E 001°52'0 0.0
2017-Nov-28 08:04N 50°58' E 001°52'0 0.1
2017-Nov-28 07:58N 50°58' E 001°52'0 0.0
2017-Nov-28 07:25N 50°58' E 001°52'0 0.0
2017-Nov-28 06:55N 50°58' E 001°52'0 0.0
2017-Nov-28 06:22N 50°58' E 001°52'0 0.0
2017-Nov-28 05:43N 50°58' E 001°52'0 0.0
2017-Nov-28 05:22N 50°58' E 001°52'0 0.0
2017-Nov-28 04:28N 50°58' E 001°52'0 0.0
2017-Nov-28 03:58N 50°58' E 001°52'0 0.0
2017-Nov-28 03:28N 50°58' E 001°52'0 0.0
2017-Nov-28 02:40N 50°58' E 001°52'0 0.0
2017-Nov-28 02:25N 50°58' E 001°52'0 0.0
2017-Nov-28 01:40N 50°58' E 001°52'0 0.0
2017-Nov-28 01:31N 50°58' E 001°52'0 0.0
2017-Nov-28 01:01N 50°58' E 001°52'0 0.0
2017-Nov-28 00:19N 50°58' E 001°52'0 0.0
2017-Nov-27 23:48N 50°58' E 001°52'0 0.0
2017-Nov-27 23:31N 50°58' E 001°52'0 0.0
2017-Nov-27 23:01N 50°58' E 001°52'0 0.0
2017-Nov-27 22:21N 50°58' E 001°52'0 0.0
2017-Nov-27 21:57N 50°58' E 001°52'0 0.0
2017-Nov-27 21:27N 50°58' E 001°52'0 0.0
2017-Nov-27 21:00N 50°58' E 001°52'0 0.0
2017-Nov-27 20:30N 50°58' E 001°52'0 0.0
2017-Nov-27 20:00N 50°58' E 001°52'0 0.0
2017-Nov-27 19:27N 50°58' E 001°52'0 0.0
2017-Nov-27 18:51N 50°58' E 001°52'0 0.0
2017-Nov-27 18:30N 50°58' E 001°52'0 0.0
2017-Nov-27 17:09N 50°58' E 001°52'0 0.0
2017-Nov-27 16:54N 50°58' E 001°52'0 0.0
2017-Nov-27 16:24N 50°58' E 001°52'0 0.0
2017-Nov-27 16:00N 50°58' E 001°52'0 0.0
2017-Nov-27 15:30N 50°58' E 001°52'0 0.0
2017-Nov-27 14:50N 50°58' E 001°52'1 2.6
2017-Nov-27 14:30N 50°58' E 001°50'4 7.8
2017-Nov-27 14:01N 50°59' E 001°44'4 7.2
2017-Nov-27 13:30N 51°01' E 001°40'612.5
2017-Nov-27 13:00N 50°57' E 001°33'713.8
2017-Nov-27 12:30N 50°50' E 001°27'713.5
2017-Nov-27 11:57N 50°44' E 001°23'4812.9
2017-Nov-27 08:16N 50°22' E 000°16'513.0
2017-Nov-27 07:54N 50°21' E 000°09'513.2
2017-Nov-27 07:30N 50°19' E 000°01'613.2
2017-Nov-27 07:00N 50°18' W 000°09'713.1
2017-Nov-27 06:30N 50°16' W 000°19'7114.1
2017-Nov-27 01:28N 49°57' W 002°06'4014.6
2017-Nov-26 22:41N 49°44' W 003°05'414.1
2017-Nov-26 22:22N 49°41' W 003°11'7313.6
2017-Nov-26 17:02N 49°05' W 004°48'413.0
2017-Nov-26 16:43N 49°03' W 004°53'312.9
2017-Nov-26 16:29N 49°02' W 004°57'812.8
2017-Nov-26 15:51N 48°58' W 005°08'412.7
2017-Nov-26 15:30N 48°56' W 005°13'612.5
2017-Nov-26 15:00N 48°52' W 005°22'612.4
2017-Nov-26 14:30N 48°49' W 005°30'612.4
2017-Nov-26 14:00N 48°46' W 005°38'1912.2
2017-Nov-26 12:26N 48°28' W 005°50'811.9
2017-Nov-26 11:45N 48°20' W 005°47'311.9
2017-Nov-26 11:30N 48°18' W 005°45'612.1
2017-Nov-26 11:00N 48°13' W 005°40'611.9
2017-Nov-26 10:29N 48°08' W 005°35'712.0
2017-Nov-26 09:56N 48°02' W 005°30'512.2
2017-Nov-26 09:30N 47°57' W 005°26'612.2
2017-Nov-26 08:59N 47°52' W 005°21'612.2
2017-Nov-26 08:30N 47°47' W 005°16'612.2
2017-Nov-26 08:00N 47°42' W 005°11'612.2
2017-Nov-26 07:30N 47°37' W 005°07'712.2
2017-Nov-26 06:58N 47°31' W 005°01'21411.9
2017-Nov-25 12:55N 44°28' W 002°21'4912.1
2017-Nov-25 08:53N 43°47' W 001°45'612.5
2017-Nov-25 08:25N 43°42' W 001°41'512.7
2017-Nov-25 08:01N 43°37' W 001°37'611.9
2017-Nov-25 07:31N 43°32' W 001°33'2 3.2
2017-Nov-25 07:00N 43°32' W 001°31'0 0.0
2017-Nov-25 06:30N 43°32' W 001°31'0 0.0
2017-Nov-25 06:00N 43°32' W 001°31'0 0.0
2017-Nov-25 05:30N 43°32' W 001°31'0 0.0
2017-Nov-25 05:00N 43°32' W 001°31'0 0.0
2017-Nov-25 04:30N 43°32' W 001°31'0 0.0
2017-Nov-25 04:00N 43°32' W 001°31'0 0.0
2017-Nov-25 03:30N 43°32' W 001°31'0 0.0
2017-Nov-25 03:00N 43°32' W 001°31'0 0.0
2017-Nov-25 02:30N 43°32' W 001°31'0 0.0
2017-Nov-25 02:00N 43°32' W 001°31'0 0.0
2017-Nov-25 01:30N 43°32' W 001°31'0 0.0
2017-Nov-25 01:00N 43°32' W 001°31'0 0.0
2017-Nov-25 00:30N 43°32' W 001°31'0 0.0
2017-Nov-25 00:00N 43°32' W 001°31'0 0.0
2017-Nov-24 23:30N 43°32' W 001°31'0 0.0
2017-Nov-24 23:00N 43°32' W 001°31'0 0.0
2017-Nov-24 22:30N 43°32' W 001°31'0 0.0
2017-Nov-24 22:00N 43°32' W 001°31'0 0.0
2017-Nov-24 21:30N 43°32' W 001°31'0 0.0
2017-Nov-24 21:00N 43°32' W 001°31'0 0.0
2017-Nov-24 20:30N 43°32' W 001°31'0 0.0
2017-Nov-24 20:00N 43°32' W 001°31'0 0.0
2017-Nov-24 19:30N 43°32' W 001°31'0 0.0
2017-Nov-24 19:00N 43°32' W 001°31'0 0.0
2017-Nov-24 18:30N 43°32' W 001°31'0 0.0
2017-Nov-24 18:00N 43°32' W 001°31'0 0.0
2017-Nov-24 17:30N 43°32' W 001°31'0 0.0
2017-Nov-24 17:00N 43°32' W 001°31'0 0.0
2017-Nov-24 16:30N 43°32' W 001°31'0 0.0
2017-Nov-24 16:00N 43°32' W 001°31'0 0.0
2017-Nov-24 15:30N 43°32' W 001°31'0 0.0
2017-Nov-24 15:00N 43°32' W 001°31'0 0.0
2017-Nov-24 14:30N 43°32' W 001°31'0 0.0
2017-Nov-24 14:00N 43°32' W 001°31'0 0.0
2017-Nov-24 13:30N 43°32' W 001°31'0 0.0
2017-Nov-24 13:00N 43°32' W 001°31'0 0.0
2017-Nov-24 12:30N 43°32' W 001°31'0 0.0
2017-Nov-24 12:00N 43°32' W 001°31'0 0.0
2017-Nov-24 11:30N 43°32' W 001°31'0 0.0
2017-Nov-24 11:00N 43°32' W 001°31'0 0.0
2017-Nov-24 10:30N 43°32' W 001°31'0 0.0
2017-Nov-24 10:00N 43°32' W 001°31'0 0.0
2017-Nov-24 09:30N 43°32' W 001°31'0 0.0
2017-Nov-24 09:00N 43°32' W 001°31'0 0.0
2017-Nov-24 08:30N 43°32' W 001°31'0 0.0
2017-Nov-24 08:00N 43°32' W 001°31'0 0.0
2017-Nov-24 07:30N 43°32' W 001°31'0 0.0
2017-Nov-24 06:59N 43°32' W 001°31'0 0.0
2017-Nov-24 06:29N 43°32' W 001°31'0 0.0
2017-Nov-24 05:59N 43°32' W 001°31'0 0.0
2017-Nov-24 05:29N 43°32' W 001°31'0 0.0
2017-Nov-24 04:59N 43°32' W 001°31'0 0.0
2017-Nov-24 04:29N 43°32' W 001°31'0 0.0
2017-Nov-24 03:59N 43°32' W 001°31'0 0.0
2017-Nov-24 03:29N 43°32' W 001°31'0 0.0
2017-Nov-24 02:59N 43°32' W 001°31'0 0.0
2017-Nov-24 02:29N 43°32' W 001°31'0 0.0
2017-Nov-24 01:59N 43°32' W 001°31'0 0.0
2017-Nov-24 01:29N 43°32' W 001°31'0 0.0
2017-Nov-24 00:59N 43°32' W 001°31'0 0.0
2017-Nov-24 00:29N 43°32' W 001°31'0 0.0
2017-Nov-23 23:59N 43°32' W 001°31'0 0.0
2017-Nov-23 23:29N 43°32' W 001°31'0 0.0
2017-Nov-23 22:59N 43°32' W 001°31'0 0.0
2017-Nov-23 22:29N 43°32' W 001°31'0 0.0
2017-Nov-23 21:59N 43°32' W 001°31'0 0.0
2017-Nov-23 21:29N 43°32' W 001°31'0 0.0
2017-Nov-23 20:59N 43°32' W 001°31'0 0.0
2017-Nov-23 20:29N 43°32' W 001°31'0 0.0
2017-Nov-23 19:59N 43°32' W 001°31'0 0.0
2017-Nov-23 19:29N 43°32' W 001°31'0 0.0
2017-Nov-23 18:59N 43°32' W 001°31'0 0.0
2017-Nov-23 18:29N 43°32' W 001°31'0 0.0
2017-Nov-23 17:59N 43°32' W 001°31'0 0.0
2017-Nov-23 17:29N 43°32' W 001°31'0 0.0
2017-Nov-23 16:59N 43°32' W 001°31'0 0.0
2017-Nov-23 16:29N 43°32' W 001°31'0 0.0
2017-Nov-23 15:59N 43°32' W 001°31'0 0.0
2017-Nov-23 15:29N 43°32' W 001°31'0 0.0
2017-Nov-23 14:59N 43°32' W 001°31'0 0.0
2017-Nov-23 14:29N 43°32' W 001°31'0 0.0
2017-Nov-23 13:59N 43°32' W 001°31'0 0.0
2017-Nov-23 13:29N 43°32' W 001°31'0 0.0
2017-Nov-23 12:59N 43°32' W 001°31'0 0.0
2017-Nov-23 12:29N 43°32' W 001°31'0 0.0
2017-Nov-23 11:59N 43°32' W 001°31'0 0.0
2017-Nov-23 11:29N 43°32' W 001°31'0 0.0
2017-Nov-23 10:59N 43°32' W 001°31'0 0.0
2017-Nov-23 10:29N 43°32' W 001°31'0 0.0
2017-Nov-23 09:59N 43°32' W 001°31'0 0.0
2017-Nov-23 09:29N 43°32' W 001°31'0 0.0
2017-Nov-23 08:59N 43°32' W 001°31'0 0.0
2017-Nov-23 08:29N 43°32' W 001°31'0 0.0
2017-Nov-23 07:59N 43°32' W 001°31'0 0.0
2017-Nov-23 07:29N 43°32' W 001°31'0 0.0
2017-Nov-23 06:59N 43°32' W 001°31'0 0.0
2017-Nov-23 06:29N 43°32' W 001°31'0 0.0
2017-Nov-23 05:59N 43°32' W 001°31'0 0.0
2017-Nov-23 05:29N 43°32' W 001°31'0 0.0
2017-Nov-23 04:59N 43°32' W 001°31'0 0.0
2017-Nov-23 04:29N 43°32' W 001°31'0 0.0
2017-Nov-23 03:59N 43°32' W 001°31'0 0.0
2017-Nov-23 03:29N 43°32' W 001°31'0 0.0
2017-Nov-23 02:59N 43°32' W 001°31'0 0.0
2017-Nov-23 02:29N 43°32' W 001°31'0 0.0
2017-Nov-23 01:59N 43°32' W 001°31'0 0.0
2017-Nov-23 01:29N 43°32' W 001°31'0 0.0
2017-Nov-23 00:59N 43°32' W 001°31'0 0.0
2017-Nov-23 00:29N 43°32' W 001°31'0 0.0
2017-Nov-22 23:59N 43°32' W 001°31'0 0.0
2017-Nov-22 23:29N 43°32' W 001°31'0 0.0
2017-Nov-22 22:59N 43°32' W 001°31'0 0.0
2017-Nov-22 22:29N 43°32' W 001°31'0 0.0
2017-Nov-22 21:59N 43°32' W 001°31'0 0.0
2017-Nov-22 21:29N 43°32' W 001°31'0 0.0
2017-Nov-22 20:59N 43°32' W 001°31'0 0.0
2017-Nov-22 20:29N 43°32' W 001°31'  
Track history (hours):
 
Tides and Currents Weather Stations Pressure Air Temp Water Temp Dewpoint Dewpoint Depression Visibility Wind Speed Wind Dir Waves Ship Positions

Eurogracht

Last reported at 2017-Dec-02 20:01 UTC. Time now 2017-Dec-13 18:51 UTC.
Position N 55°27' E 015°32'.
Warning: this ship's position is 10 days out of date.

Length 136 m; beam 19 m; draft 9 m.

Type: Cargo ship. MMSI: 246321000.

Date/timePositionNaut miles runAvg speedWind from/ knotsBaromVisibWave heightAir tempDewpointWater temp
2017-Dec-02 20:01N 55°27' E 015°32'212.7
2017-Dec-02 19:50N 55°27' E 015°28'412.5
2017-Dec-02 19:30N 55°26' E 015°21'612.6
2017-Dec-02 19:01N 55°26' E 015°10'612.8
2017-Dec-02 18:30N 55°25' E 014°58'612.8
2017-Dec-02 18:01N 55°25' E 014°47'611.7
2017-Dec-02 17:31N 55°22' E 014°38'612.3
2017-Dec-02 17:01N 55°17' E 014°32'612.4
2017-Dec-02 16:31N 55°12' E 014°25'612.8
2017-Dec-02 16:01N 55°08' E 014°17'813.7
2017-Dec-02 15:25N 55°01' E 014°08'613.6
2017-Dec-02 15:00N 54°59' E 013°59'4614.0
2017-Dec-02 11:43N 54°45' E 012°43'313.6
2017-Dec-02 11:30N 54°43' E 012°39'713.7
2017-Dec-02 11:00N 54°40' E 012°29'713.5
2017-Dec-02 10:30N 54°36' E 012°19'713.3
2017-Dec-02 10:00N 54°29' E 012°15'613.3
2017-Dec-02 09:30N 54°24' E 012°09'713.3
2017-Dec-02 08:57N 54°24' E 011°56'613.1
2017-Dec-02 08:30N 54°25' E 011°46'713.2
2017-Dec-02 08:00N 54°28' E 011°36'713.3
2017-Dec-02 07:31N 54°31' E 011°25'612.9
2017-Dec-02 07:01N 54°33' E 011°15'612.2
2017-Dec-02 06:31N 54°35' E 011°05'612.8
2017-Dec-02 06:01N 54°35' E 010°54'713.8
2017-Dec-02 05:31N 54°34' E 010°43'713.9
2017-Dec-02 05:00N 54°32' E 010°31'22 3.3
2017-Dec-01 22:18N 54°21' E 009°59'2 8.0
2017-Dec-01 21:59N 54°21' E 009°55'4 8.6
2017-Dec-01 21:30N 54°22' E 009°48'4 8.4
2017-Dec-01 21:00N 54°19' E 009°43'4 7.6
2017-Dec-01 20:30N 54°16' E 009°38'4 7.7
2017-Dec-01 20:00N 54°13' E 009°35'4 8.4
2017-Dec-01 19:30N 54°11' E 009°29'2 3.3
2017-Dec-01 19:00N 54°10' E 009°26'1 1.7
2017-Dec-01 18:30N 54°10' E 009°25'4 7.0
2017-Dec-01 18:00N 54°08' E 009°20'4 8.3
2017-Dec-01 17:30N 54°04' E 009°19'4 8.2
2017-Dec-01 17:00N 53°60' E 009°17'4 8.3
2017-Dec-01 16:30N 53°56' E 009°13'4 7.1
2017-Dec-01 16:00N 53°54' E 009°09'0 0.5
2017-Dec-01 15:30N 53°54' E 009°09'1 2.5
2017-Dec-01 15:01N 53°53' E 009°07'1 2.4
2017-Dec-01 14:30N 53°53' E 009°05'3 5.2
2017-Dec-01 14:00N 53°51' E 009°01'510.2
2017-Dec-01 13:30N 53°50' E 008°53'5 9.9
2017-Dec-01 13:00N 53°52' E 008°45'510.5
2017-Dec-01 12:30N 53°56' E 008°40'510.4
2017-Dec-01 12:00N 53°58' E 008°32'611.1
2017-Dec-01 11:30N 53°59' E 008°22'611.5
2017-Dec-01 11:00N 53°59' E 008°12'612.4
2017-Dec-01 10:30N 53°59' E 008°02'612.8
2017-Dec-01 10:00N 53°57' E 007°51'8213.8
2017-Dec-01 04:01N 53°35' E 005°37'014.5
2017-Dec-01 04:00N 53°35' E 005°37'714.8
2017-Dec-01 03:30N 53°33' E 005°25'815.3
2017-Dec-01 03:00N 53°31' E 005°13'815.1
2017-Dec-01 02:30N 53°28' E 005°01'714.9
2017-Dec-01 02:00N 53°26' E 004°49'713.7
2017-Dec-01 01:30N 53°21' E 004°42'714.6
2017-Dec-01 01:00N 53°14' E 004°36'714.2
2017-Dec-01 00:29N 53°08' E 004°29'713.7
2017-Dec-01 00:00N 53°02' E 004°24'613.0
2017-Nov-30 23:30N 52°56' E 004°20'612.6
2017-Nov-30 23:00N 52°51' E 004°15'612.2
2017-Nov-30 22:31N 52°46' E 004°09'612.1
2017-Nov-30 22:00N 52°41' E 004°02'611.9
2017-Nov-30 21:30N 52°37' E 003°56'611.8
2017-Nov-30 21:01N 52°33' E 003°49'611.5
2017-Nov-30 20:27N 52°28' E 003°42'511.0
2017-Nov-30 19:58N 52°24' E 003°35'6810.5
2017-Nov-30 13:28N 51°34' E 002°21'612.3
2017-Nov-30 13:00N 51°30' E 002°15'712.4
2017-Nov-30 12:28N 51°24' E 002°10'612.4
2017-Nov-30 12:00N 51°18' E 002°07'612.7
2017-Nov-30 11:30N 51°13' E 002°02'713.6
2017-Nov-30 10:59N 51°09' E 001°53'713.8
2017-Nov-30 10:30N 51°04' E 001°45'611.2
2017-Nov-30 10:00N 50°59' E 001°44'5 9.0
2017-Nov-30 09:31N 50°58' E 001°51'1 1.0
2017-Nov-30 09:00N 50°58' E 001°52'0 0.0
2017-Nov-30 08:29N 50°58' E 001°52'0 0.0
2017-Nov-30 07:53N 50°58' E 001°52'0 0.0
2017-Nov-30 07:29N 50°58' E 001°52'0 0.0
2017-Nov-30 06:59N 50°58' E 001°52'0 0.0
2017-Nov-30 06:20N 50°58' E 001°52'0 0.0
2017-Nov-30 05:56N 50°58' E 001°52'0 0.0
2017-Nov-30 05:29N 50°58' E 001°52'0 0.0
2017-Nov-30 04:56N 50°58' E 001°52'0 0.0
2017-Nov-30 04:29N 50°58' E 001°52'0 0.0
2017-Nov-30 03:59N 50°58' E 001°52'0 0.0
2017-Nov-30 03:29N 50°58' E 001°52'0 0.0
2017-Nov-30 02:53N 50°58' E 001°52'0 0.0
2017-Nov-30 02:23N 50°58' E 001°52'0 0.0
2017-Nov-30 01:59N 50°58' E 001°52'0 0.0
2017-Nov-30 01:23N 50°58' E 001°52'0 0.0
2017-Nov-30 00:59N 50°58' E 001°52'0 0.0
2017-Nov-30 00:26N 50°58' E 001°52'0 0.0
2017-Nov-29 23:59N 50°58' E 001°52'0 0.0
2017-Nov-29 23:29N 50°58' E 001°52'0 0.0
2017-Nov-29 22:59N 50°58' E 001°52'0 0.0
2017-Nov-29 22:02N 50°58' E 001°52'0 0.1
2017-Nov-29 21:56N 50°58' E 001°52'0 0.0
2017-Nov-29 21:29N 50°58' E 001°52'0 0.0
2017-Nov-29 20:59N 50°58' E 001°52'0 0.0
2017-Nov-29 20:29N 50°58' E 001°52'0 0.0
2017-Nov-29 19:50N 50°58' E 001°52'0 0.0
2017-Nov-29 19:29N 50°58' E 001°52'0 0.0
2017-Nov-29 18:59N 50°58' E 001°52'0 0.0
2017-Nov-29 18:29N 50°58' E 001°52'0 0.0
2017-Nov-29 17:59N 50°58' E 001°52'0 0.0
2017-Nov-29 17:26N 50°58' E 001°52'0 0.0
2017-Nov-29 16:59N 50°58' E 001°52'0 0.0
2017-Nov-29 16:29N 50°58' E 001°52'0 0.0
2017-Nov-29 15:47N 50°58' E 001°52'0 0.0
2017-Nov-29 15:23N 50°58' E 001°52'0 0.0
2017-Nov-29 14:50N 50°58' E 001°52'0 0.0
2017-Nov-29 14:29N 50°58' E 001°52'0 0.0
2017-Nov-29 13:59N 50°58' E 001°52'0 0.0
2017-Nov-29 13:29N 50°58' E 001°52'0 0.0
2017-Nov-29 12:58N 50°58' E 001°52'0 0.0
2017-Nov-29 12:28N 50°58' E 001°52'0 0.0
2017-Nov-29 11:43N 50°58' E 001°52'0 0.0
2017-Nov-29 11:25N 50°58' E 001°52'0 0.0
2017-Nov-29 10:46N 50°58' E 001°52'0 0.0
2017-Nov-29 09:25N 50°58' E 001°52'0 0.0
2017-Nov-29 08:58N 50°58' E 001°52'0 0.0
2017-Nov-29 08:28N 50°58' E 001°52'0 0.0
2017-Nov-29 07:58N 50°58' E 001°52'0 0.0
2017-Nov-29 07:28N 50°58' E 001°52'0 0.0
2017-Nov-29 06:58N 50°58' E 001°52'0 0.0
2017-Nov-29 06:25N 50°58' E 001°52'0 0.0
2017-Nov-29 05:40N 50°58' E 001°52'0 0.0
2017-Nov-29 05:28N 50°58' E 001°52'0 0.0
2017-Nov-29 04:55N 50°58' E 001°52'0 0.0
2017-Nov-29 04:19N 50°58' E 001°52'0 0.0
2017-Nov-29 03:55N 50°58' E 001°52'0 0.0
2017-Nov-29 03:28N 50°58' E 001°52'0 0.0
2017-Nov-29 02:58N 50°58' E 001°52'0 0.0
2017-Nov-29 02:28N 50°58' E 001°52'0 0.0
2017-Nov-29 01:58N 50°58' E 001°52'0 0.0
2017-Nov-29 01:22N 50°58' E 001°52'0 0.0
2017-Nov-29 00:58N 50°58' E 001°52'0 0.0
2017-Nov-29 00:28N 50°58' E 001°52'0 0.0
2017-Nov-28 23:58N 50°58' E 001°52'0 0.0
2017-Nov-28 23:22N 50°58' E 001°52'0 0.0
2017-Nov-28 22:58N 50°58' E 001°52'0 0.0
2017-Nov-28 21:49N 50°58' E 001°52'0 0.0
2017-Nov-28 17:22N 50°58' E 001°52'0 0.0
2017-Nov-28 16:55N 50°58' E 001°52'0 0.0
2017-Nov-28 15:49N 50°58' E 001°52'0 0.0
2017-Nov-28 14:04N 50°58' E 001°52'0 0.0
2017-Nov-28 13:58N 50°58' E 001°52'0 0.0
2017-Nov-28 13:22N 50°58' E 001°52'0 0.0
2017-Nov-28 11:46N 50°58' E 001°52'0 0.0
2017-Nov-28 11:22N 50°58' E 001°52'0 0.0
2017-Nov-28 10:58N 50°58' E 001°52'0 0.0
2017-Nov-28 10:22N 50°58' E 001°52'0 0.0
2017-Nov-28 09:52N 50°58' E 001°52'0 0.0
2017-Nov-28 09:28N 50°58' E 001°52'0 0.0
2017-Nov-28 08:04N 50°58' E 001°52'0 0.1
2017-Nov-28 07:58N 50°58' E 001°52'0 0.0
2017-Nov-28 07:25N 50°58' E 001°52'0 0.0
2017-Nov-28 06:55N 50°58' E 001°52'0 0.0
2017-Nov-28 06:22N 50°58' E 001°52'0 0.0
2017-Nov-28 05:43N 50°58' E 001°52'0 0.0
2017-Nov-28 05:22N 50°58' E 001°52'0 0.0
2017-Nov-28 04:28N 50°58' E 001°52'0 0.0
2017-Nov-28 03:58N 50°58' E 001°52'0 0.0
2017-Nov-28 03:28N 50°58' E 001°52'0 0.0
2017-Nov-28 02:40N 50°58' E 001°52'0 0.0
2017-Nov-28 02:25N 50°58' E 001°52'0 0.0
2017-Nov-28 01:40N 50°58' E 001°52'0 0.0
2017-Nov-28 01:31N 50°58' E 001°52'0 0.0
2017-Nov-28 01:01N 50°58' E 001°52'0 0.0
2017-Nov-28 00:19N 50°58' E 001°52'0 0.0
2017-Nov-27 23:48N 50°58' E 001°52'0 0.0
2017-Nov-27 23:31N 50°58' E 001°52'0 0.0
2017-Nov-27 23:01N 50°58' E 001°52'0 0.0
2017-Nov-27 22:21N 50°58' E 001°52'0 0.0
2017-Nov-27 21:57N 50°58' E 001°52'0 0.0
2017-Nov-27 21:27N 50°58' E 001°52'0 0.0
2017-Nov-27 21:00N 50°58' E 001°52'0 0.0
2017-Nov-27 20:30N 50°58' E 001°52'0 0.0
2017-Nov-27 20:00N 50°58' E 001°52'0 0.0
2017-Nov-27 19:27N 50°58' E 001°52'0 0.0
2017-Nov-27 18:51N 50°58' E 001°52'0 0.0
2017-Nov-27 18:30N 50°58' E 001°52'0 0.0
2017-Nov-27 17:09N 50°58' E 001°52'0 0.0
2017-Nov-27 16:54N 50°58' E 001°52'0 0.0
2017-Nov-27 16:24N 50°58' E 001°52'0 0.0
2017-Nov-27 16:00N 50°58' E 001°52'0 0.0
2017-Nov-27 15:30N 50°58' E 001°52'0 0.0
2017-Nov-27 14:50N 50°58' E 001°52'1 2.6
2017-Nov-27 14:30N 50°58' E 001°50'4 7.8
2017-Nov-27 14:01N 50°59' E 001°44'4 7.2
2017-Nov-27 13:30N 51°01' E 001°40'612.5
2017-Nov-27 13:00N 50°57' E 001°33'713.8
2017-Nov-27 12:30N 50°50' E 001°27'713.5
2017-Nov-27 11:57N 50°44' E 001°23'4812.9
2017-Nov-27 08:16N 50°22' E 000°16'513.0
2017-Nov-27 07:54N 50°21' E 000°09'513.2
2017-Nov-27 07:30N 50°19' E 000°01'613.2
2017-Nov-27 07:00N 50°18' W 000°09'713.1
2017-Nov-27 06:30N 50°16' W 000°19'7114.1
2017-Nov-27 01:28N 49°57' W 002°06'4014.6
2017-Nov-26 22:41N 49°44' W 003°05'414.1
2017-Nov-26 22:22N 49°41' W 003°11'7313.6
2017-Nov-26 17:02N 49°05' W 004°48'413.0
2017-Nov-26 16:43N 49°03' W 004°53'312.9
2017-Nov-26 16:29N 49°02' W 004°57'812.8
2017-Nov-26 15:51N 48°58' W 005°08'412.7
2017-Nov-26 15:30N 48°56' W 005°13'612.5
2017-Nov-26 15:00N 48°52' W 005°22'612.4
2017-Nov-26 14:30N 48°49' W 005°30'612.4
2017-Nov-26 14:00N 48°46' W 005°38'1912.2
2017-Nov-26 12:26N 48°28' W 005°50'811.9
2017-Nov-26 11:45N 48°20' W 005°47'311.9
2017-Nov-26 11:30N 48°18' W 005°45'612.1
2017-Nov-26 11:00N 48°13' W 005°40'611.9
2017-Nov-26 10:29N 48°08' W 005°35'712.0
2017-Nov-26 09:56N 48°02' W 005°30'512.2
2017-Nov-26 09:30N 47°57' W 005°26'612.2
2017-Nov-26 08:59N 47°52' W 005°21'612.2
2017-Nov-26 08:30N 47°47' W 005°16'612.2
2017-Nov-26 08:00N 47°42' W 005°11'612.2
2017-Nov-26 07:30N 47°37' W 005°07'712.2
2017-Nov-26 06:58N 47°31' W 005°01'21411.9
2017-Nov-25 12:55N 44°28' W 002°21'4912.1
2017-Nov-25 08:53N 43°47' W 001°45'612.5
2017-Nov-25 08:25N 43°42' W 001°41'512.7
2017-Nov-25 08:01N 43°37' W 001°37'611.9
2017-Nov-25 07:31N 43°32' W 001°33'2 3.2
2017-Nov-25 07:00N 43°32' W 001°31'0 0.0
2017-Nov-25 06:30N 43°32' W 001°31'0 0.0
2017-Nov-25 06:00N 43°32' W 001°31'0 0.0
2017-Nov-25 05:30N 43°32' W 001°31'0 0.0
2017-Nov-25 05:00N 43°32' W 001°31'0 0.0
2017-Nov-25 04:30N 43°32' W 001°31'0 0.0
2017-Nov-25 04:00N 43°32' W 001°31'0 0.0
2017-Nov-25 03:30N 43°32' W 001°31'0 0.0
2017-Nov-25 03:00N 43°32' W 001°31'0 0.0
2017-Nov-25 02:30N 43°32' W 001°31'0 0.0
2017-Nov-25 02:00N 43°32' W 001°31'0 0.0
2017-Nov-25 01:30N 43°32' W 001°31'0 0.0
2017-Nov-25 01:00N 43°32' W 001°31'0 0.0
2017-Nov-25 00:30N 43°32' W 001°31'0 0.0
2017-Nov-25 00:00N 43°32' W 001°31'0 0.0
2017-Nov-24 23:30N 43°32' W 001°31'0 0.0
2017-Nov-24 23:00N 43°32' W 001°31'0 0.0
2017-Nov-24 22:30N 43°32' W 001°31'0 0.0
2017-Nov-24 22:00N 43°32' W 001°31'0 0.0
2017-Nov-24 21:30N 43°32' W 001°31'0 0.0
2017-Nov-24 21:00N 43°32' W 001°31'0 0.0
2017-Nov-24 20:30N 43°32' W 001°31'0 0.0
2017-Nov-24 20:00N 43°32' W 001°31'0 0.0
2017-Nov-24 19:30N 43°32' W 001°31'0 0.0
2017-Nov-24 19:00N 43°32' W 001°31'0 0.0
2017-Nov-24 18:30N 43°32' W 001°31'0 0.0
2017-Nov-24 18:00N 43°32' W 001°31'0 0.0
2017-Nov-24 17:30N 43°32' W 001°31'0 0.0
2017-Nov-24 17:00N 43°32' W 001°31'0 0.0
2017-Nov-24 16:30N 43°32' W 001°31'0 0.0
2017-Nov-24 16:00N 43°32' W 001°31'0 0.0
2017-Nov-24 15:30N 43°32' W 001°31'0 0.0
2017-Nov-24 15:00N 43°32' W 001°31'0 0.0
2017-Nov-24 14:30N 43°32' W 001°31'0 0.0
2017-Nov-24 14:00N 43°32' W 001°31'0 0.0
2017-Nov-24 13:30N 43°32' W 001°31'0 0.0
2017-Nov-24 13:00N 43°32' W 001°31'0 0.0
2017-Nov-24 12:30N 43°32' W 001°31'0 0.0
2017-Nov-24 12:00N 43°32' W 001°31'0 0.0
2017-Nov-24 11:30N 43°32' W 001°31'0 0.0
2017-Nov-24 11:00N 43°32' W 001°31'0 0.0
2017-Nov-24 10:30N 43°32' W 001°31'0 0.0
2017-Nov-24 10:00N 43°32' W 001°31'0 0.0
2017-Nov-24 09:30N 43°32' W 001°31'0 0.0
2017-Nov-24 09:00N 43°32' W 001°31'0 0.0
2017-Nov-24 08:30N 43°32' W 001°31'0 0.0
2017-Nov-24 08:00N 43°32' W 001°31'0 0.0
2017-Nov-24 07:30N 43°32' W 001°31'0 0.0
2017-Nov-24 06:59N 43°32' W 001°31'0 0.0
2017-Nov-24 06:29N 43°32' W 001°31'0 0.0
2017-Nov-24 05:59N 43°32' W 001°31'0 0.0
2017-Nov-24 05:29N 43°32' W 001°31'0 0.0
2017-Nov-24 04:59N 43°32' W 001°31'0 0.0
2017-Nov-24 04:29N 43°32' W 001°31'0 0.0
2017-Nov-24 03:59N 43°32' W 001°31'0 0.0
2017-Nov-24 03:29N 43°32' W 001°31'0 0.0
2017-Nov-24 02:59N 43°32' W 001°31'0 0.0
2017-Nov-24 02:29N 43°32' W 001°31'0 0.0
2017-Nov-24 01:59N 43°32' W 001°31'0 0.0
2017-Nov-24 01:29N 43°32' W 001°31'0 0.0
2017-Nov-24 00:59N 43°32' W 001°31'0 0.0
2017-Nov-24 00:29N 43°32' W 001°31'0 0.0
2017-Nov-23 23:59N 43°32' W 001°31'0 0.0
2017-Nov-23 23:29N 43°32' W 001°31'0 0.0
2017-Nov-23 22:59N 43°32' W 001°31'0 0.0
2017-Nov-23 22:29N 43°32' W 001°31'0 0.0
2017-Nov-23 21:59N 43°32' W 001°31'0 0.0
2017-Nov-23 21:29N 43°32' W 001°31'0 0.0
2017-Nov-23 20:59N 43°32' W 001°31'0 0.0
2017-Nov-23 20:29N 43°32' W 001°31'0 0.0
2017-Nov-23 19:59N 43°32' W 001°31'0 0.0
2017-Nov-23 19:29N 43°32' W 001°31'0 0.0
2017-Nov-23 18:59N 43°32' W 001°31'0 0.0
2017-Nov-23 18:29N 43°32' W 001°31'0 0.0
2017-Nov-23 17:59N 43°32' W 001°31'0 0.0
2017-Nov-23 17:29N 43°32' W 001°31'0 0.0
2017-Nov-23 16:59N 43°32' W 001°31'0 0.0
2017-Nov-23 16:29N 43°32' W 001°31'0 0.0
2017-Nov-23 15:59N 43°32' W 001°31'0 0.0
2017-Nov-23 15:29N 43°32' W 001°31'0 0.0
2017-Nov-23 14:59N 43°32' W 001°31'0 0.0
2017-Nov-23 14:29N 43°32' W 001°31'0 0.0
2017-Nov-23 13:59N 43°32' W 001°31'0 0.0
2017-Nov-23 13:29N 43°32' W 001°31'0 0.0
2017-Nov-23 12:59N 43°32' W 001°31'0 0.0
2017-Nov-23 12:29N 43°32' W 001°31'0 0.0
2017-Nov-23 11:59N 43°32' W 001°31'0 0.0
2017-Nov-23 11:29N 43°32' W 001°31'0 0.0
2017-Nov-23 10:59N 43°32' W 001°31'0 0.0
2017-Nov-23 10:29N 43°32' W 001°31'0 0.0
2017-Nov-23 09:59N 43°32' W 001°31'0 0.0
2017-Nov-23 09:29N 43°32' W 001°31'0 0.0
2017-Nov-23 08:59N 43°32' W 001°31'0 0.0
2017-Nov-23 08:29N 43°32' W 001°31'0 0.0
2017-Nov-23 07:59N 43°32' W 001°31'0 0.0
2017-Nov-23 07:29N 43°32' W 001°31'0 0.0
2017-Nov-23 06:59N 43°32' W 001°31'0 0.0
2017-Nov-23 06:29N 43°32' W 001°31'0 0.0
2017-Nov-23 05:59N 43°32' W 001°31'0 0.0
2017-Nov-23 05:29N 43°32' W 001°31'0 0.0
2017-Nov-23 04:59N 43°32' W 001°31'0 0.0
2017-Nov-23 04:29N 43°32' W 001°31'0 0.0
2017-Nov-23 03:59N 43°32' W 001°31'0 0.0
2017-Nov-23 03:29N 43°32' W 001°31'0 0.0
2017-Nov-23 02:59N 43°32' W 001°31'0 0.0
2017-Nov-23 02:29N 43°32' W 001°31'0 0.0
2017-Nov-23 01:59N 43°32' W 001°31'0 0.0
2017-Nov-23 01:29N 43°32' W 001°31'0 0.0
2017-Nov-23 00:59N 43°32' W 001°31'0 0.0
2017-Nov-23 00:29N 43°32' W 001°31'0 0.0
2017-Nov-22 23:59N 43°32' W 001°31'0 0.0
2017-Nov-22 23:29N 43°32' W 001°31'0 0.0
2017-Nov-22 22:59N 43°32' W 001°31'0 0.0
2017-Nov-22 22:29N 43°32' W 001°31'0 0.0
2017-Nov-22 21:59N 43°32' W 001°31'0 0.0
2017-Nov-22 21:29N 43°32' W 001°31'0 0.0
2017-Nov-22 20:59N 43°32' W 001°31'0 0.0
2017-Nov-22 20:29N 43°32' W 001°31'  

Dump ship's entire track history